sensor_id;sensor_type;location;lat;lon;timestamp;P1;durP1;ratioP1;P2;durP2;ratioP2
351;SDS011;164;50.784;6.496;2023-04-03T00:01:05;7.38;;;5.53;;
351;SDS011;164;50.784;6.496;2023-04-03T00:03:32;8.65;;;8.15;;
351;SDS011;164;50.784;6.496;2023-04-03T00:06:01;8.00;;;7.60;;
351;SDS011;164;50.784;6.496;2023-04-03T00:08:28;9.48;;;6.82;;
351;SDS011;164;50.784;6.496;2023-04-03T00:10:57;7.25;;;6.85;;
351;SDS011;164;50.784;6.496;2023-04-03T00:13:24;7.63;;;7.22;;
351;SDS011;164;50.784;6.496;2023-04-03T00:15:52;7.53;;;7.13;;
351;SDS011;164;50.784;6.496;2023-04-03T00:18:19;7.25;;;5.93;;
351;SDS011;164;50.784;6.496;2023-04-03T00:20:47;6.30;;;5.95;;
351;SDS011;164;50.784;6.496;2023-04-03T00:23:14;7.38;;;4.78;;
351;SDS011;164;50.784;6.496;2023-04-03T00:25:42;6.60;;;4.55;;
351;SDS011;164;50.784;6.496;2023-04-03T00:28:11;3.53;;;3.33;;
351;SDS011;164;50.784;6.496;2023-04-03T00:30:38;3.58;;;3.20;;
351;SDS011;164;50.784;6.496;2023-04-03T00:33:06;3.83;;;3.35;;
351;SDS011;164;50.784;6.496;2023-04-03T00:35:33;3.30;;;3.10;;
351;SDS011;164;50.784;6.496;2023-04-03T00:38:01;2.97;;;2.70;;
351;SDS011;164;50.784;6.496;2023-04-03T00:40:32;2.67;;;2.50;;
351;SDS011;164;50.784;6.496;2023-04-03T00:43:00;3.25;;;2.80;;
351;SDS011;164;50.784;6.496;2023-04-03T00:45:33;6.15;;;3.17;;
351;SDS011;164;50.784;6.496;2023-04-03T00:48:01;2.40;;;2.20;;
351;SDS011;164;50.784;6.496;2023-04-03T00:50:34;3.95;;;2.63;;
351;SDS011;164;50.784;6.496;2023-04-03T00:53:02;2.53;;;2.33;;
351;SDS011;164;50.784;6.496;2023-04-03T00:55:30;3.25;;;2.80;;
351;SDS011;164;50.784;6.496;2023-04-03T00:57:58;2.50;;;2.03;;
351;SDS011;164;50.784;6.496;2023-04-03T01:00:26;3.10;;;2.40;;
351;SDS011;164;50.784;6.496;2023-04-03T01:02:55;2.50;;;2.15;;
351;SDS011;164;50.784;6.496;2023-04-03T01:05:22;4.35;;;2.60;;
351;SDS011;164;50.784;6.496;2023-04-03T01:07:50;3.30;;;2.60;;
351;SDS011;164;50.784;6.496;2023-04-03T01:10:18;2.70;;;2.50;;
351;SDS011;164;50.784;6.496;2023-04-03T01:12:46;2.40;;;2.25;;
351;SDS011;164;50.784;6.496;2023-04-03T01:15:14;2.75;;;2.58;;
351;SDS011;164;50.784;6.496;2023-04-03T01:17:43;4.25;;;3.30;;
351;SDS011;164;50.784;6.496;2023-04-03T01:23:05;2.55;;;2.35;;
351;SDS011;164;50.784;6.496;2023-04-03T01:25:33;2.75;;;2.55;;
351;SDS011;164;50.784;6.496;2023-04-03T01:28:01;4.85;;;2.60;;
351;SDS011;164;50.784;6.496;2023-04-03T01:30:30;2.38;;;2.25;;
351;SDS011;164;50.784;6.496;2023-04-03T01:32:59;2.95;;;2.75;;
351;SDS011;164;50.784;6.496;2023-04-03T01:35:26;3.50;;;3.20;;
351;SDS011;164;50.784;6.496;2023-04-03T01:37:53;3.22;;;3.03;;
351;SDS011;164;50.784;6.496;2023-04-03T01:40:21;3.72;;;3.53;;
351;SDS011;164;50.784;6.496;2023-04-03T01:42:48;3.17;;;2.75;;
351;SDS011;164;50.784;6.496;2023-04-03T01:45:16;3.95;;;3.28;;
351;SDS011;164;50.784;6.496;2023-04-03T01:47:43;5.00;;;3.15;;
351;SDS011;164;50.784;6.496;2023-04-03T01:50:12;5.40;;;2.90;;
351;SDS011;164;50.784;6.496;2023-04-03T01:52:39;3.60;;;2.72;;
351;SDS011;164;50.784;6.496;2023-04-03T01:55:06;3.45;;;3.25;;
351;SDS011;164;50.784;6.496;2023-04-03T01:57:33;2.97;;;2.78;;
351;SDS011;164;50.784;6.496;2023-04-03T02:00:00;3.58;;;3.38;;
351;SDS011;164;50.784;6.496;2023-04-03T02:02:28;3.53;;;3.33;;
351;SDS011;164;50.784;6.496;2023-04-03T02:04:55;4.05;;;3.10;;
351;SDS011;164;50.784;6.496;2023-04-03T02:07:24;3.30;;;3.10;;
351;SDS011;164;50.784;6.496;2023-04-03T02:09:51;3.22;;;3.03;;
351;SDS011;164;50.784;6.496;2023-04-03T02:12:18;3.50;;;3.30;;
351;SDS011;164;50.784;6.496;2023-04-03T02:14:45;6.93;;;3.67;;
351;SDS011;164;50.784;6.496;2023-04-03T02:17:13;3.63;;;3.42;;
351;SDS011;164;50.784;6.496;2023-04-03T02:19:40;6.38;;;4.65;;
351;SDS011;164;50.784;6.496;2023-04-03T02:22:07;4.03;;;3.83;;
351;SDS011;164;50.784;6.496;2023-04-03T02:24:37;3.95;;;3.75;;
351;SDS011;164;50.784;6.496;2023-04-03T02:27:05;5.43;;;3.85;;
351;SDS011;164;50.784;6.496;2023-04-03T02:29:32;4.43;;;4.10;;
351;SDS011;164;50.784;6.496;2023-04-03T02:31:59;5.07;;;4.63;;
351;SDS011;164;50.784;6.496;2023-04-03T02:34:27;4.65;;;4.35;;
351;SDS011;164;50.784;6.496;2023-04-03T02:36:54;6.47;;;6.07;;
351;SDS011;164;50.784;6.496;2023-04-03T02:39:21;5.60;;;5.30;;
351;SDS011;164;50.784;6.496;2023-04-03T02:41:50;7.47;;;6.25;;
351;SDS011;164;50.784;6.496;2023-04-03T02:44:17;6.57;;;6.18;;
351;SDS011;164;50.784;6.496;2023-04-03T02:46:44;6.90;;;6.18;;
351;SDS011;164;50.784;6.496;2023-04-03T02:49:11;6.40;;;5.80;;
351;SDS011;164;50.784;6.496;2023-04-03T02:51:39;5.30;;;5.00;;
351;SDS011;164;50.784;6.496;2023-04-03T02:54:06;9.25;;;5.88;;
351;SDS011;164;50.784;6.496;2023-04-03T02:56:33;7.85;;;5.68;;
351;SDS011;164;50.784;6.496;2023-04-03T02:59:02;5.85;;;5.55;;
351;SDS011;164;50.784;6.496;2023-04-03T03:01:30;5.82;;;5.20;;
351;SDS011;164;50.784;6.496;2023-04-03T03:03:57;6.30;;;5.95;;
351;SDS011;164;50.784;6.496;2023-04-03T03:06:25;6.05;;;5.75;;
351;SDS011;164;50.784;6.496;2023-04-03T03:08:52;6.70;;;6.30;;
351;SDS011;164;50.784;6.496;2023-04-03T03:11:19;6.95;;;6.55;;
351;SDS011;164;50.784;6.496;2023-04-03T03:13:47;6.20;;;5.82;;
351;SDS011;164;50.784;6.496;2023-04-03T03:16:16;7.57;;;6.05;;
351;SDS011;164;50.784;6.496;2023-04-03T03:18:43;6.25;;;5.93;;
351;SDS011;164;50.784;6.496;2023-04-03T03:21:10;5.85;;;5.65;;
351;SDS011;164;50.784;6.496;2023-04-03T03:23:38;6.80;;;6.40;;
351;SDS011;164;50.784;6.496;2023-04-03T03:26:06;6.07;;;5.78;;
351;SDS011;164;50.784;6.496;2023-04-03T03:28:34;6.90;;;5.47;;
351;SDS011;164;50.784;6.496;2023-04-03T03:31:02;6.10;;;5.78;;
351;SDS011;164;50.784;6.496;2023-04-03T03:33:31;5.80;;;5.50;;
351;SDS011;164;50.784;6.496;2023-04-03T03:35:58;6.20;;;5.90;;
351;SDS011;164;50.784;6.496;2023-04-03T03:38:25;6.40;;;6.00;;
351;SDS011;164;50.784;6.496;2023-04-03T03:40:52;8.30;;;7.45;;
351;SDS011;164;50.784;6.496;2023-04-03T03:43:20;6.18;;;5.85;;
351;SDS011;164;50.784;6.496;2023-04-03T03:45:49;7.20;;;6.80;;
351;SDS011;164;50.784;6.496;2023-04-03T03:48:17;6.50;;;6.10;;
351;SDS011;164;50.784;6.496;2023-04-03T03:50:46;6.13;;;5.82;;
351;SDS011;164;50.784;6.496;2023-04-03T03:53:14;7.00;;;6.60;;
351;SDS011;164;50.784;6.496;2023-04-03T03:55:41;7.50;;;7.10;;
351;SDS011;164;50.784;6.496;2023-04-03T03:58:08;7.38;;;6.97;;
351;SDS011;164;50.784;6.496;2023-04-03T04:00:41;6.68;;;6.30;;
351;SDS011;164;50.784;6.496;2023-04-03T04:03:08;6.68;;;6.28;;
351;SDS011;164;50.784;6.496;2023-04-03T04:05:35;7.57;;;7.18;;
351;SDS011;164;50.784;6.496;2023-04-03T04:08:04;6.38;;;6.00;;
351;SDS011;164;50.784;6.496;2023-04-03T04:10:31;9.13;;;6.95;;
351;SDS011;164;50.784;6.496;2023-04-03T04:12:58;7.53;;;7.13;;
351;SDS011;164;50.784;6.496;2023-04-03T04:15:25;7.15;;;6.40;;
351;SDS011;164;50.784;6.496;2023-04-03T04:17:53;5.93;;;5.63;;
351;SDS011;164;50.784;6.496;2023-04-03T04:20:22;6.90;;;6.50;;
351;SDS011;164;50.784;6.496;2023-04-03T04:22:49;7.82;;;7.43;;
351;SDS011;164;50.784;6.496;2023-04-03T04:25:18;7.43;;;7.03;;
351;SDS011;164;50.784;6.496;2023-04-03T04:27:45;7.90;;;7.50;;
351;SDS011;164;50.784;6.496;2023-04-03T04:30:13;7.97;;;7.57;;
351;SDS011;164;50.784;6.496;2023-04-03T04:32:40;7.22;;;6.82;;
351;SDS011;164;50.784;6.496;2023-04-03T04:35:07;14.77;;;8.38;;
351;SDS011;164;50.784;6.496;2023-04-03T04:37:35;7.50;;;7.10;;
351;SDS011;164;50.784;6.496;2023-04-03T04:40:02;8.30;;;7.88;;
351;SDS011;164;50.784;6.496;2023-04-03T04:42:31;8.50;;;8.00;;
351;SDS011;164;50.784;6.496;2023-04-03T04:44:58;7.68;;;7.28;;
351;SDS011;164;50.784;6.496;2023-04-03T04:47:25;7.28;;;6.88;;
351;SDS011;164;50.784;6.496;2023-04-03T04:49:54;8.55;;;8.07;;
351;SDS011;164;50.784;6.496;2023-04-03T04:52:21;8.20;;;7.50;;
351;SDS011;164;50.784;6.496;2023-04-03T04:54:49;8.15;;;7.75;;
351;SDS011;164;50.784;6.496;2023-04-03T04:57:16;9.13;;;8.63;;
351;SDS011;164;50.784;6.496;2023-04-03T04:59:47;9.75;;;9.25;;
351;SDS011;164;50.784;6.496;2023-04-03T05:02:15;8.80;;;8.30;;
351;SDS011;164;50.784;6.496;2023-04-03T05:04:42;9.38;;;8.70;;
351;SDS011;164;50.784;6.496;2023-04-03T05:07:09;8.40;;;7.95;;
351;SDS011;164;50.784;6.496;2023-04-03T05:09:36;11.23;;;10.63;;
351;SDS011;164;50.784;6.496;2023-04-03T05:12:06;10.55;;;9.98;;
351;SDS011;164;50.784;6.496;2023-04-03T05:14:33;10.43;;;9.90;;
351;SDS011;164;50.784;6.496;2023-04-03T05:17:02;10.32;;;9.82;;
351;SDS011;164;50.784;6.496;2023-04-03T05:19:29;9.25;;;8.75;;
351;SDS011;164;50.784;6.496;2023-04-03T05:21:56;9.15;;;8.65;;
351;SDS011;164;50.784;6.496;2023-04-03T05:24:25;9.57;;;9.07;;
351;SDS011;164;50.784;6.496;2023-04-03T05:26:52;8.73;;;8.23;;
351;SDS011;164;50.784;6.496;2023-04-03T05:29:20;10.55;;;9.98;;
351;SDS011;164;50.784;6.496;2023-04-03T05:31:48;8.27;;;7.85;;
351;SDS011;164;50.784;6.496;2023-04-03T05:34:17;9.70;;;9.20;;
351;SDS011;164;50.784;6.496;2023-04-03T05:36:45;9.30;;;8.80;;
351;SDS011;164;50.784;6.496;2023-04-03T05:39:12;10.27;;;9.77;;
351;SDS011;164;50.784;6.496;2023-04-03T05:41:39;10.23;;;9.73;;
351;SDS011;164;50.784;6.496;2023-04-03T05:44:06;11.00;;;10.40;;
351;SDS011;164;50.784;6.496;2023-04-03T05:46:34;9.57;;;9.07;;
351;SDS011;164;50.784;6.496;2023-04-03T05:49:01;9.60;;;9.10;;
351;SDS011;164;50.784;6.496;2023-04-03T05:51:30;10.77;;;10.18;;
351;SDS011;164;50.784;6.496;2023-04-03T05:53:59;9.02;;;8.52;;
351;SDS011;164;50.784;6.496;2023-04-03T05:56:27;10.02;;;8.73;;
351;SDS011;164;50.784;6.496;2023-04-03T05:58:54;9.57;;;9.07;;
351;SDS011;164;50.784;6.496;2023-04-03T06:01:22;9.85;;;9.20;;
351;SDS011;164;50.784;6.496;2023-04-03T06:03:49;10.32;;;9.82;;
351;SDS011;164;50.784;6.496;2023-04-03T06:06:16;17.42;;;16.52;;
351;SDS011;164;50.784;6.496;2023-04-03T06:08:45;15.23;;;14.43;;
351;SDS011;164;50.784;6.496;2023-04-03T06:11:12;11.30;;;10.57;;
351;SDS011;164;50.784;6.496;2023-04-03T06:13:40;9.10;;;8.60;;
351;SDS011;164;50.784;6.496;2023-04-03T06:16:08;9.38;;;8.88;;
351;SDS011;164;50.784;6.496;2023-04-03T06:18:35;9.90;;;9.40;;
351;SDS011;164;50.784;6.496;2023-04-03T06:21:03;9.77;;;9.27;;
351;SDS011;164;50.784;6.496;2023-04-03T06:23:32;9.52;;;9.02;;
351;SDS011;164;50.784;6.496;2023-04-03T06:26:01;8.75;;;8.25;;
351;SDS011;164;50.784;6.496;2023-04-03T06:28:28;10.48;;;7.95;;
351;SDS011;164;50.784;6.496;2023-04-03T06:30:55;8.30;;;7.78;;
351;SDS011;164;50.784;6.496;2023-04-03T06:33:22;10.38;;;6.72;;
351;SDS011;164;50.784;6.496;2023-04-03T06:35:54;7.40;;;7.00;;
351;SDS011;164;50.784;6.496;2023-04-03T06:38:22;12.05;;;8.10;;
351;SDS011;164;50.784;6.496;2023-04-03T06:40:49;7.05;;;6.63;;
351;SDS011;164;50.784;6.496;2023-04-03T06:43:19;8.73;;;7.38;;
351;SDS011;164;50.784;6.496;2023-04-03T06:45:46;8.50;;;6.10;;
351;SDS011;164;50.784;6.496;2023-04-03T06:48:14;7.00;;;6.13;;
351;SDS011;164;50.784;6.496;2023-04-03T06:50:41;5.93;;;5.60;;
351;SDS011;164;50.784;6.496;2023-04-03T06:53:08;6.88;;;6.15;;
351;SDS011;164;50.784;6.496;2023-04-03T06:55:37;8.13;;;6.03;;
351;SDS011;164;50.784;6.496;2023-04-03T06:58:04;8.25;;;6.50;;
351;SDS011;164;50.784;6.496;2023-04-03T07:00:33;5.75;;;5.45;;
351;SDS011;164;50.784;6.496;2023-04-03T07:03:00;7.47;;;5.93;;
351;SDS011;164;50.784;6.496;2023-04-03T07:05:28;6.15;;;5.85;;
351;SDS011;164;50.784;6.496;2023-04-03T07:07:55;9.60;;;6.70;;
351;SDS011;164;50.784;6.496;2023-04-03T07:10:22;5.63;;;5.32;;
351;SDS011;164;50.784;6.496;2023-04-03T07:12:50;7.28;;;4.97;;
351;SDS011;164;50.784;6.496;2023-04-03T07:15:18;5.53;;;5.22;;
351;SDS011;164;50.784;6.496;2023-04-03T07:17:46;5.80;;;5.50;;
351;SDS011;164;50.784;6.496;2023-04-03T07:20:14;5.45;;;5.18;;
351;SDS011;164;50.784;6.496;2023-04-03T07:22:41;6.05;;;5.68;;
351;SDS011;164;50.784;6.496;2023-04-03T07:25:08;5.88;;;5.57;;
351;SDS011;164;50.784;6.496;2023-04-03T07:27:36;6.53;;;6.13;;
351;SDS011;164;50.784;6.496;2023-04-03T07:30:03;5.00;;;4.70;;
351;SDS011;164;50.784;6.496;2023-04-03T07:32:31;5.05;;;4.75;;
351;SDS011;164;50.784;6.496;2023-04-03T07:35:00;6.50;;;4.85;;
351;SDS011;164;50.784;6.496;2023-04-03T07:37:27;5.15;;;4.57;;
351;SDS011;164;50.784;6.496;2023-04-03T07:39:55;6.45;;;5.47;;
351;SDS011;164;50.784;6.496;2023-04-03T07:42:24;4.72;;;4.03;;
351;SDS011;164;50.784;6.496;2023-04-03T07:44:52;5.18;;;4.15;;
351;SDS011;164;50.784;6.496;2023-04-03T07:47:20;4.40;;;4.10;;
351;SDS011;164;50.784;6.496;2023-04-03T07:49:47;3.95;;;3.55;;
351;SDS011;164;50.784;6.496;2023-04-03T07:52:16;5.03;;;3.92;;
351;SDS011;164;50.784;6.496;2023-04-03T07:54:43;5.53;;;5.22;;
351;SDS011;164;50.784;6.496;2023-04-03T07:57:10;6.30;;;5.13;;
351;SDS011;164;50.784;6.496;2023-04-03T07:59:38;3.60;;;3.40;;
351;SDS011;164;50.784;6.496;2023-04-03T08:02:08;5.40;;;3.10;;
351;SDS011;164;50.784;6.496;2023-04-03T08:04:36;4.10;;;3.72;;
351;SDS011;164;50.784;6.496;2023-04-03T08:07:03;11.90;;;4.55;;
351;SDS011;164;50.784;6.496;2023-04-03T08:09:32;4.85;;;4.00;;
351;SDS011;164;50.784;6.496;2023-04-03T08:11:59;5.28;;;4.47;;
351;SDS011;164;50.784;6.496;2023-04-03T08:14:26;3.38;;;3.17;;
351;SDS011;164;50.784;6.496;2023-04-03T08:16:53;4.32;;;3.90;;
351;SDS011;164;50.784;6.496;2023-04-03T08:19:21;4.28;;;4.00;;
351;SDS011;164;50.784;6.496;2023-04-03T08:21:49;3.90;;;3.50;;
351;SDS011;164;50.784;6.496;2023-04-03T08:24:16;4.70;;;3.10;;
351;SDS011;164;50.784;6.496;2023-04-03T08:26:44;4.32;;;3.17;;
351;SDS011;164;50.784;6.496;2023-04-03T08:29:12;4.70;;;3.92;;
351;SDS011;164;50.784;6.496;2023-04-03T08:31:39;4.78;;;4.47;;
351;SDS011;164;50.784;6.496;2023-04-03T08:34:07;6.43;;;3.28;;
351;SDS011;164;50.784;6.496;2023-04-03T08:36:35;3.67;;;3.30;;
351;SDS011;164;50.784;6.496;2023-04-03T08:39:25;7.82;;;5.60;;
351;SDS011;164;50.784;6.496;2023-04-03T08:41:53;12.18;;;6.95;;
351;SDS011;164;50.784;6.496;2023-04-03T08:44:24;10.38;;;7.57;;
351;SDS011;164;50.784;6.496;2023-04-03T08:46:57;8.27;;;6.00;;
351;SDS011;164;50.784;6.496;2023-04-03T08:49:26;7.60;;;4.13;;
351;SDS011;164;50.784;6.496;2023-04-03T08:51:54;6.53;;;3.22;;
351;SDS011;164;50.784;6.496;2023-04-03T08:54:24;3.55;;;2.67;;
351;SDS011;164;50.784;6.496;2023-04-03T08:56:56;3.38;;;2.65;;
351;SDS011;164;50.784;6.496;2023-04-03T08:59:26;3.13;;;2.05;;
351;SDS011;164;50.784;6.496;2023-04-03T09:01:55;5.05;;;2.50;;
351;SDS011;164;50.784;6.496;2023-04-03T09:04:31;4.82;;;2.38;;
351;SDS011;164;50.784;6.496;2023-04-03T09:07:02;6.22;;;2.65;;
351;SDS011;164;50.784;6.496;2023-04-03T09:09:32;5.28;;;2.63;;
351;SDS011;164;50.784;6.496;2023-04-03T09:12:06;3.65;;;1.80;;
351;SDS011;164;50.784;6.496;2023-04-03T09:14:41;4.65;;;2.90;;
351;SDS011;164;50.784;6.496;2023-04-03T09:17:11;3.17;;;1.95;;
351;SDS011;164;50.784;6.496;2023-04-03T09:19:41;2.65;;;2.08;;
351;SDS011;164;50.784;6.496;2023-04-03T09:22:12;2.33;;;2.05;;
351;SDS011;164;50.784;6.496;2023-04-03T09:24:41;2.60;;;1.83;;
351;SDS011;164;50.784;6.496;2023-04-03T09:27:10;3.00;;;2.00;;
351;SDS011;164;50.784;6.496;2023-04-03T09:29:39;2.70;;;2.03;;
351;SDS011;164;50.784;6.496;2023-04-03T09:32:12;2.90;;;2.10;;
351;SDS011;164;50.784;6.496;2023-04-03T09:34:44;2.30;;;1.85;;
351;SDS011;164;50.784;6.496;2023-04-03T09:37:12;2.72;;;2.05;;
351;SDS011;164;50.784;6.496;2023-04-03T09:40:00;5.00;;;2.60;;
351;SDS011;164;50.784;6.496;2023-04-03T09:42:29;4.20;;;1.77;;
351;SDS011;164;50.784;6.496;2023-04-03T09:44:58;4.93;;;2.20;;
351;SDS011;164;50.784;6.496;2023-04-03T09:47:27;2.25;;;1.95;;
351;SDS011;164;50.784;6.496;2023-04-03T09:50:08;5.60;;;1.95;;
351;SDS011;164;50.784;6.496;2023-04-03T09:52:36;2.50;;;2.05;;
351;SDS011;164;50.784;6.496;2023-04-03T09:55:06;3.60;;;1.90;;
351;SDS011;164;50.784;6.496;2023-04-03T09:57:35;1.83;;;1.60;;
351;SDS011;164;50.784;6.496;2023-04-03T10:00:03;2.60;;;1.80;;
351;SDS011;164;50.784;6.496;2023-04-03T10:02:35;5.82;;;2.05;;
351;SDS011;164;50.784;6.496;2023-04-03T10:05:04;3.13;;;1.85;;
351;SDS011;164;50.784;6.496;2023-04-03T10:07:38;2.72;;;1.50;;
351;SDS011;164;50.784;6.496;2023-04-03T10:10:16;4.03;;;2.20;;
351;SDS011;164;50.784;6.496;2023-04-03T10:12:46;2.35;;;1.55;;
351;SDS011;164;50.784;6.496;2023-04-03T10:15:14;3.28;;;2.00;;
351;SDS011;164;50.784;6.496;2023-04-03T10:17:49;2.90;;;1.90;;
351;SDS011;164;50.784;6.496;2023-04-03T10:20:23;3.22;;;1.70;;
351;SDS011;164;50.784;6.496;2023-04-03T10:22:55;3.13;;;1.90;;
351;SDS011;164;50.784;6.496;2023-04-03T10:25:25;3.40;;;3.22;;
351;SDS011;164;50.784;6.496;2023-04-03T10:27:56;3.15;;;1.48;;
351;SDS011;164;50.784;6.496;2023-04-03T10:30:31;2.60;;;1.73;;
351;SDS011;164;50.784;6.496;2023-04-03T10:33:03;3.58;;;2.10;;
351;SDS011;164;50.784;6.496;2023-04-03T10:35:37;6.22;;;2.33;;
351;SDS011;164;50.784;6.496;2023-04-03T10:38:09;1.95;;;1.60;;
351;SDS011;164;50.784;6.496;2023-04-03T10:40:41;3.97;;;1.80;;
351;SDS011;164;50.784;6.496;2023-04-03T10:43:16;3.78;;;2.50;;
351;SDS011;164;50.784;6.496;2023-04-03T10:45:56;3.42;;;1.60;;
351;SDS011;164;50.784;6.496;2023-04-03T10:48:33;2.97;;;2.00;;
351;SDS011;164;50.784;6.496;2023-04-03T10:51:05;7.40;;;5.93;;
351;SDS011;164;50.784;6.496;2023-04-03T10:53:37;2.28;;;1.67;;
351;SDS011;164;50.784;6.496;2023-04-03T10:56:07;1.52;;;1.20;;
351;SDS011;164;50.784;6.496;2023-04-03T10:58:38;2.05;;;1.95;;
351;SDS011;164;50.784;6.496;2023-04-03T11:01:07;2.63;;;1.35;;
351;SDS011;164;50.784;6.496;2023-04-03T11:03:36;2.25;;;1.40;;
351;SDS011;164;50.784;6.496;2023-04-03T11:06:07;2.15;;;1.13;;
351;SDS011;164;50.784;6.496;2023-04-03T11:08:37;2.45;;;1.58;;
351;SDS011;164;50.784;6.496;2023-04-03T11:11:05;3.15;;;1.50;;
351;SDS011;164;50.784;6.496;2023-04-03T11:13:34;2.17;;;1.98;;
351;SDS011;164;50.784;6.496;2023-04-03T11:16:04;1.73;;;1.30;;
351;SDS011;164;50.784;6.496;2023-04-03T11:18:32;2.17;;;1.25;;
351;SDS011;164;50.784;6.496;2023-04-03T11:21:03;3.25;;;1.30;;
351;SDS011;164;50.784;6.496;2023-04-03T11:23:32;2.28;;;1.50;;
351;SDS011;164;50.784;6.496;2023-04-03T11:26:09;5.38;;;3.85;;
351;SDS011;164;50.784;6.496;2023-04-03T11:28:36;6.57;;;3.50;;
351;SDS011;164;50.784;6.496;2023-04-03T11:31:08;4.28;;;2.53;;
351;SDS011;164;50.784;6.496;2023-04-03T11:33:40;1.88;;;1.33;;
351;SDS011;164;50.784;6.496;2023-04-03T11:36:10;3.50;;;2.15;;
351;SDS011;164;50.784;6.496;2023-04-03T11:38:41;2.47;;;2.10;;
351;SDS011;164;50.784;6.496;2023-04-03T11:41:09;1.70;;;1.63;;
351;SDS011;164;50.784;6.496;2023-04-03T11:43:39;2.65;;;2.10;;
351;SDS011;164;50.784;6.496;2023-04-03T11:46:08;2.22;;;1.67;;
351;SDS011;164;50.784;6.496;2023-04-03T11:48:47;1.92;;;1.42;;
351;SDS011;164;50.784;6.496;2023-04-03T11:56:51;1.90;;;1.25;;
351;SDS011;164;50.784;6.496;2023-04-03T11:59:22;3.45;;;1.25;;
351;SDS011;164;50.784;6.496;2023-04-03T12:01:51;1.70;;;1.40;;
351;SDS011;164;50.784;6.496;2023-04-03T12:04:19;1.88;;;1.30;;
351;SDS011;164;50.784;6.496;2023-04-03T12:06:51;1.67;;;0.82;;
351;SDS011;164;50.784;6.496;2023-04-03T12:09:25;1.90;;;1.35;;
351;SDS011;164;50.784;6.496;2023-04-03T12:11:52;2.58;;;1.55;;
351;SDS011;164;50.784;6.496;2023-04-03T12:14:21;2.03;;;1.00;;
351;SDS011;164;50.784;6.496;2023-04-03T12:16:51;2.60;;;1.80;;
351;SDS011;164;50.784;6.496;2023-04-03T12:22:11;2.53;;;1.85;;
351;SDS011;164;50.784;6.496;2023-04-03T12:24:39;3.75;;;1.70;;
351;SDS011;164;50.784;6.496;2023-04-03T12:29:51;2.50;;;1.05;;
351;SDS011;164;50.784;6.496;2023-04-03T12:32:24;1.98;;;0.98;;
351;SDS011;164;50.784;6.496;2023-04-03T12:34:55;1.50;;;1.08;;
351;SDS011;164;50.784;6.496;2023-04-03T12:37:40;1.60;;;0.80;;
351;SDS011;164;50.784;6.496;2023-04-03T12:40:14;2.13;;;1.40;;
351;SDS011;164;50.784;6.496;2023-04-03T12:42:54;1.80;;;1.15;;
351;SDS011;164;50.784;6.496;2023-04-03T12:45:25;1.80;;;1.35;;
351;SDS011;164;50.784;6.496;2023-04-03T12:47:55;1.27;;;0.80;;
351;SDS011;164;50.784;6.496;2023-04-03T12:50:22;2.65;;;0.95;;
351;SDS011;164;50.784;6.496;2023-04-03T12:52:57;1.42;;;0.88;;
351;SDS011;164;50.784;6.496;2023-04-03T12:55:26;1.15;;;0.90;;
351;SDS011;164;50.784;6.496;2023-04-03T12:57:54;2.30;;;1.40;;
351;SDS011;164;50.784;6.496;2023-04-03T13:00:28;1.73;;;0.85;;
351;SDS011;164;50.784;6.496;2023-04-03T13:02:59;1.90;;;1.00;;
351;SDS011;164;50.784;6.496;2023-04-03T13:05:26;1.90;;;1.10;;
351;SDS011;164;50.784;6.496;2023-04-03T13:07:55;4.13;;;1.13;;
351;SDS011;164;50.784;6.496;2023-04-03T13:10:24;2.60;;;1.35;;
351;SDS011;164;50.784;6.496;2023-04-03T13:12:52;2.58;;;1.13;;
351;SDS011;164;50.784;6.496;2023-04-03T13:15:20;1.25;;;1.10;;
351;SDS011;164;50.784;6.496;2023-04-03T13:17:50;1.88;;;1.42;;
351;SDS011;164;50.784;6.496;2023-04-03T13:20:21;2.78;;;0.95;;
351;SDS011;164;50.784;6.496;2023-04-03T13:22:49;1.20;;;1.10;;
351;SDS011;164;50.784;6.496;2023-04-03T13:25:19;2.17;;;0.95;;
351;SDS011;164;50.784;6.496;2023-04-03T13:27:46;1.77;;;0.73;;
351;SDS011;164;50.784;6.496;2023-04-03T13:30:21;2.95;;;1.10;;
351;SDS011;164;50.784;6.496;2023-04-03T13:32:50;2.03;;;1.25;;
351;SDS011;164;50.784;6.496;2023-04-03T13:35:27;1.10;;;1.10;;
351;SDS011;164;50.784;6.496;2023-04-03T13:37:55;2.17;;;0.95;;
351;SDS011;164;50.784;6.496;2023-04-03T13:40:23;1.83;;;1.30;;
351;SDS011;164;50.784;6.496;2023-04-03T13:42:58;1.83;;;1.00;;
351;SDS011;164;50.784;6.496;2023-04-03T13:45:25;2.58;;;0.77;;
351;SDS011;164;50.784;6.496;2023-04-03T13:47:54;1.42;;;0.75;;
351;SDS011;164;50.784;6.496;2023-04-03T13:50:48;2.05;;;1.73;;
351;SDS011;164;50.784;6.496;2023-04-03T13:53:16;1.60;;;1.10;;
351;SDS011;164;50.784;6.496;2023-04-03T13:58:27;2.00;;;1.10;;
351;SDS011;164;50.784;6.496;2023-04-03T14:00:55;1.80;;;1.30;;
351;SDS011;164;50.784;6.496;2023-04-03T14:03:24;2.70;;;1.10;;
351;SDS011;164;50.784;6.496;2023-04-03T14:05:53;2.58;;;0.90;;
351;SDS011;164;50.784;6.496;2023-04-03T14:08:20;2.15;;;0.95;;
351;SDS011;164;50.784;6.496;2023-04-03T14:10:48;1.42;;;1.10;;
351;SDS011;164;50.784;6.496;2023-04-03T14:13:16;2.30;;;0.88;;
351;SDS011;164;50.784;6.496;2023-04-03T14:15:44;2.40;;;1.30;;
351;SDS011;164;50.784;6.496;2023-04-03T14:18:12;1.52;;;1.02;;
351;SDS011;164;50.784;6.496;2023-04-03T14:20:40;1.48;;;0.80;;
351;SDS011;164;50.784;6.496;2023-04-03T14:23:10;1.48;;;1.05;;
351;SDS011;164;50.784;6.496;2023-04-03T14:25:38;2.40;;;0.95;;
351;SDS011;164;50.784;6.496;2023-04-03T14:28:12;1.95;;;1.20;;
351;SDS011;164;50.784;6.496;2023-04-03T14:30:40;2.20;;;1.05;;
351;SDS011;164;50.784;6.496;2023-04-03T14:33:09;1.60;;;1.10;;
351;SDS011;164;50.784;6.496;2023-04-03T14:35:37;1.17;;;0.75;;
351;SDS011;164;50.784;6.496;2023-04-03T14:38:05;2.58;;;1.35;;
351;SDS011;164;50.784;6.496;2023-04-03T14:40:33;2.05;;;1.42;;
351;SDS011;164;50.784;6.496;2023-04-03T14:43:01;1.98;;;1.15;;
351;SDS011;164;50.784;6.496;2023-04-03T14:45:28;1.90;;;1.17;;
351;SDS011;164;50.784;6.496;2023-04-03T14:47:56;1.35;;;1.10;;
351;SDS011;164;50.784;6.496;2023-04-03T14:50:24;3.15;;;1.45;;
351;SDS011;164;50.784;6.496;2023-04-03T14:52:54;2.08;;;1.45;;
351;SDS011;164;50.784;6.496;2023-04-03T14:55:22;1.92;;;1.35;;
351;SDS011;164;50.784;6.496;2023-04-03T14:57:51;1.45;;;1.20;;
351;SDS011;164;50.784;6.496;2023-04-03T15:00:19;2.78;;;1.20;;
351;SDS011;164;50.784;6.496;2023-04-03T15:02:47;1.27;;;1.17;;
351;SDS011;164;50.784;6.496;2023-04-03T15:05:14;1.95;;;1.35;;
351;SDS011;164;50.784;6.496;2023-04-03T15:07:43;1.25;;;1.00;;
351;SDS011;164;50.784;6.496;2023-04-03T15:10:16;3.58;;;1.20;;
351;SDS011;164;50.784;6.496;2023-04-03T15:12:44;3.42;;;1.20;;
351;SDS011;164;50.784;6.496;2023-04-03T15:15:13;3.05;;;1.70;;
351;SDS011;164;50.784;6.496;2023-04-03T15:17:42;0.98;;;0.85;;
351;SDS011;164;50.784;6.496;2023-04-03T15:20:11;1.48;;;1.35;;
351;SDS011;164;50.784;6.496;2023-04-03T15:22:39;1.80;;;1.23;;
351;SDS011;164;50.784;6.496;2023-04-03T15:25:06;1.30;;;1.10;;
351;SDS011;164;50.784;6.496;2023-04-03T15:27:34;1.75;;;1.20;;
351;SDS011;164;50.784;6.496;2023-04-03T15:30:01;0.90;;;0.88;;
351;SDS011;164;50.784;6.496;2023-04-03T15:32:30;2.30;;;1.38;;
351;SDS011;164;50.784;6.496;2023-04-03T15:34:58;3.15;;;1.00;;
351;SDS011;164;50.784;6.496;2023-04-03T15:37:26;3.20;;;1.35;;
351;SDS011;164;50.784;6.496;2023-04-03T15:39:53;3.55;;;2.08;;
351;SDS011;164;50.784;6.496;2023-04-03T15:42:22;1.80;;;1.33;;
351;SDS011;164;50.784;6.496;2023-04-03T15:44:49;1.98;;;1.10;;
351;SDS011;164;50.784;6.496;2023-04-03T15:47:17;3.08;;;0.90;;
351;SDS011;164;50.784;6.496;2023-04-03T15:49:45;3.45;;;1.70;;
351;SDS011;164;50.784;6.496;2023-04-03T15:52:13;1.77;;;1.30;;
351;SDS011;164;50.784;6.496;2023-04-03T15:54:40;1.23;;;0.80;;
351;SDS011;164;50.784;6.496;2023-04-03T15:57:07;1.90;;;1.48;;
351;SDS011;164;50.784;6.496;2023-04-03T15:59:34;2.08;;;1.23;;
351;SDS011;164;50.784;6.496;2023-04-03T16:02:01;1.92;;;0.90;;
351;SDS011;164;50.784;6.496;2023-04-03T16:04:30;2.90;;;2.00;;
351;SDS011;164;50.784;6.496;2023-04-03T16:07:01;3.15;;;1.08;;
351;SDS011;164;50.784;6.496;2023-04-03T16:09:28;2.45;;;1.65;;
351;SDS011;164;50.784;6.496;2023-04-03T16:11:56;3.33;;;1.50;;